createdAt,value
2022-12-29T00:01:24.760Z,9.30
2022-12-29T00:03:55.719Z,9.30
2022-12-29T00:06:27.155Z,9.30
2022-12-29T00:08:58.189Z,9.30
2022-12-29T00:11:29.341Z,9.20
2022-12-29T00:14:24.190Z,9.30
2022-12-29T00:16:57.804Z,9.30
2022-12-29T00:19:47.662Z,9.30
2022-12-29T00:22:37.079Z,9.30
2022-12-29T00:25:29.889Z,9.30
2022-12-29T00:28:19.377Z,9.20
2022-12-29T00:31:08.950Z,9.20
2022-12-29T00:33:58.309Z,9.20
2022-12-29T00:36:36.284Z,9.10
2022-12-29T00:39:37.726Z,9.10
2022-12-29T00:42:28.775Z,9.10
2022-12-29T00:44:59.743Z,9.10
2022-12-29T00:47:30.587Z,9.00
2022-12-29T00:50:01.502Z,9.10
2022-12-29T00:52:32.437Z,9.10
2022-12-29T00:55:03.444Z,9.10
2022-12-29T00:57:34.293Z,9.00
2022-12-29T01:00:05.854Z,9.00
2022-12-29T01:02:36.948Z,9.00
2022-12-29T01:05:08.362Z,9.00
2022-12-29T01:07:39.213Z,9.00
2022-12-29T01:10:12.668Z,9.10
2022-12-29T01:12:45.821Z,9.10
2022-12-29T01:15:16.843Z,9.10
2022-12-29T01:17:48.242Z,9.10
2022-12-29T01:20:20.040Z,9.10
2022-12-29T01:22:51.003Z,9.20
2022-12-29T01:25:22.026Z,9.20
2022-12-29T01:27:52.849Z,9.30
2022-12-29T01:30:23.706Z,9.40
2022-12-29T01:32:54.567Z,9.30
2022-12-29T01:35:25.471Z,9.20
2022-12-29T01:37:56.314Z,9.30
2022-12-29T01:40:27.211Z,9.30
2022-12-29T01:42:58.193Z,9.50
2022-12-29T01:45:29.106Z,9.50
2022-12-29T01:48:04.972Z,9.50
2022-12-29T01:50:53.475Z,9.50
2022-12-29T01:53:32.046Z,9.60
2022-12-29T01:56:09.169Z,9.60
2022-12-29T01:58:45.987Z,9.70
2022-12-29T02:01:19.668Z,9.70
2022-12-29T02:03:51.706Z,9.70
2022-12-29T02:06:27.634Z,9.70
2022-12-29T02:08:59.538Z,9.70
2022-12-29T02:11:32.135Z,9.70
2022-12-29T02:14:05.873Z,9.70
2022-12-29T02:17:13.551Z,9.70
2022-12-29T02:20:54.109Z,9.70
2022-12-29T02:24:03.177Z,9.70
2022-12-29T02:27:05.082Z,9.70
2022-12-29T02:30:03.629Z,9.80
2022-12-29T02:32:46.485Z,9.80
2022-12-29T02:35:37.272Z,9.90
2022-12-29T02:38:25.213Z,10.00
2022-12-29T02:41:38.342Z,10.10
2022-12-29T02:44:37.302Z,10.00
2022-12-29T02:47:17.681Z,10.10
2022-12-29T02:49:55.993Z,10.10
2022-12-29T02:52:44.565Z,10.10
2022-12-29T02:55:15.611Z,10.10
2022-12-29T02:57:46.645Z,10.10
2022-12-29T03:00:18.897Z,10.20
2022-12-29T03:03:05.508Z,10.30
2022-12-29T03:06:08.828Z,10.30
2022-12-29T03:08:40.248Z,10.40
2022-12-29T03:11:33.174Z,10.40
2022-12-29T03:14:49.444Z,10.50
2022-12-29T03:17:36.507Z,10.50
2022-12-29T03:20:15.380Z,10.60
2022-12-29T03:22:49.237Z,10.80
2022-12-29T03:25:32.247Z,10.90
2022-12-29T03:28:26.966Z,10.90
2022-12-29T03:31:00.143Z,11.00
2022-12-29T03:33:32.525Z,11.10
2022-12-29T03:36:09.713Z,11.00
2022-12-29T03:39:01.197Z,11.00
2022-12-29T03:41:34.274Z,10.90
2022-12-29T03:44:08.173Z,11.00
2022-12-29T03:46:42.095Z,11.00
2022-12-29T03:49:13.166Z,11.10
2022-12-29T03:51:44.476Z,11.10
2022-12-29T03:54:15.396Z,11.20
2022-12-29T03:56:46.291Z,11.20
2022-12-29T03:59:17.344Z,11.20
2022-12-29T04:01:49.442Z,11.20
2022-12-29T04:04:20.396Z,11.20
2022-12-29T04:06:51.261Z,11.30
2022-12-29T04:09:22.179Z,11.30
2022-12-29T04:11:53.020Z,11.40
2022-12-29T04:14:23.908Z,11.30
2022-12-29T04:16:54.811Z,11.30
2022-12-29T04:19:25.689Z,11.40
2022-12-29T04:21:56.551Z,11.50
2022-12-29T04:24:27.417Z,11.50
2022-12-29T04:26:58.249Z,11.50
2022-12-29T04:29:29.096Z,11.60
2022-12-29T04:31:59.988Z,11.50
2022-12-29T04:34:30.882Z,11.60
2022-12-29T04:37:01.790Z,11.60
2022-12-29T04:39:33.982Z,11.70
2022-12-29T04:42:04.994Z,11.70
2022-12-29T04:44:38.667Z,11.70
2022-12-29T04:47:13.988Z,11.80
2022-12-29T04:49:44.882Z,11.80
2022-12-29T04:52:15.967Z,11.70
2022-12-29T04:54:46.897Z,11.80
2022-12-29T04:57:17.791Z,11.80
2022-12-29T04:59:48.675Z,11.80
2022-12-29T05:02:19.642Z,11.70
2022-12-29T05:04:50.891Z,11.70
2022-12-29T05:07:21.804Z,11.70
2022-12-29T05:09:52.695Z,11.80
2022-12-29T05:12:23.536Z,11.70
2022-12-29T05:14:54.403Z,11.80
2022-12-29T05:17:25.447Z,11.80
2022-12-29T05:19:56.352Z,11.90
2022-12-29T05:22:27.336Z,11.80
2022-12-29T05:24:58.237Z,11.80
2022-12-29T05:27:29.245Z,11.90
2022-12-29T05:30:00.364Z,11.90
2022-12-29T05:32:32.679Z,11.80
2022-12-29T05:35:04.459Z,11.90
2022-12-29T05:37:35.335Z,11.80
2022-12-29T05:40:07.375Z,11.90
2022-12-29T05:42:38.491Z,11.90
2022-12-29T05:45:11.865Z,11.90
2022-12-29T05:47:42.687Z,11.90
2022-12-29T05:50:13.668Z,11.90
2022-12-29T05:52:44.974Z,11.90
2022-12-29T05:55:16.005Z,11.90
2022-12-29T05:57:46.990Z,12.00
2022-12-29T06:00:18.196Z,12.00
2022-12-29T06:02:49.217Z,12.00
2022-12-29T06:05:20.221Z,12.00
2022-12-29T06:07:51.117Z,12.00
2022-12-29T06:10:22.002Z,12.00
2022-12-29T06:12:52.921Z,12.00
2022-12-29T06:15:24.077Z,11.90
2022-12-29T06:17:54.986Z,11.90
2022-12-29T06:20:25.904Z,11.90
2022-12-29T06:22:56.795Z,11.90
2022-12-29T06:25:27.772Z,12.00
2022-12-29T06:27:59.066Z,12.00
2022-12-29T06:30:29.976Z,12.00
2022-12-29T06:33:01.217Z,12.00
2022-12-29T06:35:32.155Z,12.00
2022-12-29T06:38:03.059Z,12.00
2022-12-29T06:40:34.206Z,12.00
2022-12-29T06:43:05.096Z,12.00
2022-12-29T06:45:35.984Z,11.90
2022-12-29T06:48:07.494Z,11.90
2022-12-29T06:50:38.611Z,11.90
2022-12-29T06:53:09.542Z,11.80
2022-12-29T06:55:40.698Z,11.70
2022-12-29T06:58:11.584Z,11.60
2022-12-29T07:00:42.453Z,11.60
2022-12-29T07:03:13.387Z,11.60
2022-12-29T07:05:44.850Z,11.60
2022-12-29T07:08:18.243Z,11.50
2022-12-29T07:10:49.167Z,11.50
2022-12-29T07:13:20.213Z,11.30
2022-12-29T07:15:51.073Z,11.40
2022-12-29T07:18:21.931Z,11.30
2022-12-29T07:20:52.882Z,11.40
2022-12-29T07:23:23.762Z,11.40
2022-12-29T07:26:07.819Z,11.40
2022-12-29T07:28:42.726Z,11.40
2022-12-29T07:31:22.572Z,11.40
2022-12-29T07:33:53.631Z,11.40
2022-12-29T07:36:28.002Z,11.30
2022-12-29T07:39:02.421Z,11.40
2022-12-29T07:41:33.815Z,11.40
2022-12-29T07:44:05.059Z,11.40
2022-12-29T07:46:55.000Z,11.40
2022-12-29T07:49:26.853Z,11.50
2022-12-29T07:51:57.748Z,11.40
2022-12-29T07:54:28.654Z,11.50
2022-12-29T07:57:01.143Z,11.50
2022-12-29T07:59:32.108Z,11.50
2022-12-29T08:02:03.131Z,11.60
2022-12-29T08:04:34.579Z,11.60
2022-12-29T08:07:05.514Z,11.70
2022-12-29T08:09:36.745Z,11.70
2022-12-29T08:12:10.943Z,11.70
2022-12-29T08:14:41.858Z,11.80
2022-12-29T08:17:12.694Z,11.80
2022-12-29T08:19:43.792Z,11.80
2022-12-29T08:22:15.782Z,11.80
2022-12-29T08:24:46.742Z,11.80
2022-12-29T08:27:20.746Z,11.90
2022-12-29T08:29:52.157Z,11.90
2022-12-29T08:32:23.011Z,11.90
2022-12-29T08:34:54.102Z,11.90
2022-12-29T08:37:30.755Z,12.00
2022-12-29T08:40:04.836Z,11.90
2022-12-29T08:42:35.891Z,12.00
2022-12-29T08:45:09.027Z,12.10
2022-12-29T08:47:39.997Z,12.10
2022-12-29T08:50:10.870Z,12.10
2022-12-29T08:52:41.707Z,12.10
2022-12-29T08:55:12.647Z,12.00
2022-12-29T08:57:43.645Z,12.00
2022-12-29T09:00:16.083Z,12.10
2022-12-29T09:02:47.238Z,12.10
2022-12-29T09:05:18.284Z,12.20
2022-12-29T09:07:49.437Z,12.20
2022-12-29T09:10:20.764Z,12.20
2022-12-29T09:12:51.701Z,12.30
2022-12-29T09:15:22.619Z,12.30
2022-12-29T09:17:53.520Z,12.40
2022-12-29T09:20:24.506Z,12.40
2022-12-29T09:22:55.351Z,12.40
2022-12-29T09:25:26.283Z,12.40
2022-12-29T09:27:57.278Z,12.50
2022-12-29T09:30:28.185Z,12.50
2022-12-29T09:32:59.051Z,12.50
2022-12-29T09:35:29.931Z,12.50
2022-12-29T09:38:00.801Z,12.60
2022-12-29T09:40:34.097Z,12.60
2022-12-29T09:43:15.034Z,12.60
2022-12-29T09:46:18.099Z,12.70
2022-12-29T09:49:12.924Z,12.70
2022-12-29T09:51:49.037Z,12.70
2022-12-29T09:54:42.428Z,12.80
2022-12-29T09:57:28.592Z,12.90
2022-12-29T10:00:15.256Z,13.00
2022-12-29T10:03:17.847Z,13.10
2022-12-29T10:06:07.032Z,13.20
2022-12-29T10:08:50.476Z,13.10
2022-12-29T10:12:13.748Z,13.10
2022-12-29T10:15:05.849Z,13.10
2022-12-29T10:17:50.077Z,13.10
2022-12-29T10:21:15.171Z,13.20
2022-12-29T10:23:54.118Z,13.20
2022-12-29T10:26:29.942Z,13.20
2022-12-29T10:29:07.194Z,13.20
2022-12-29T10:31:52.747Z,13.30
2022-12-29T10:34:37.576Z,13.30
2022-12-29T10:37:38.519Z,13.40
2022-12-29T10:40:21.214Z,13.50
2022-12-29T10:42:56.351Z,13.50
2022-12-29T10:45:31.865Z,13.50
2022-12-29T10:48:25.922Z,13.60
2022-12-29T10:51:04.189Z,13.60
2022-12-29T10:53:44.969Z,13.60
2022-12-29T10:56:37.127Z,13.60
2022-12-29T10:59:25.947Z,13.70
2022-12-29T11:02:06.204Z,13.70
2022-12-29T11:05:05.213Z,13.90
2022-12-29T11:07:36.966Z,14.10
2022-12-29T11:10:42.078Z,14.20
2022-12-29T11:13:39.272Z,14.20
2022-12-29T11:16:13.101Z,14.20
2022-12-29T11:18:47.865Z,14.20
2022-12-29T11:21:41.415Z,14.20
2022-12-29T11:24:28.378Z,14.10
2022-12-29T11:27:23.953Z,14.20
2022-12-29T11:29:55.339Z,14.20
2022-12-29T11:32:32.359Z,14.20
2022-12-29T11:35:05.614Z,14.20
2022-12-29T11:37:40.775Z,14.20
2022-12-29T11:40:21.929Z,14.20
2022-12-29T11:42:58.143Z,14.10
2022-12-29T11:45:35.723Z,14.10
2022-12-29T11:48:19.758Z,14.00
2022-12-29T11:50:57.163Z,14.00
2022-12-29T11:53:49.317Z,13.90
2022-12-29T11:56:42.942Z,13.80
2022-12-29T11:59:28.975Z,13.20
2022-12-29T12:02:02.151Z,12.80
2022-12-29T12:04:38.137Z,12.60
2022-12-29T12:07:13.591Z,12.60
2022-12-29T12:10:04.889Z,12.50
2022-12-29T12:12:44.606Z,12.40
2022-12-29T12:15:29.367Z,12.20
2022-12-29T12:18:13.069Z,12.20
2022-12-29T12:20:51.702Z,12.30
2022-12-29T12:24:16.993Z,12.40
2022-12-29T12:27:01.156Z,12.50
2022-12-29T12:29:57.566Z,12.60
2022-12-29T12:32:51.727Z,12.70
2022-12-29T12:35:43.062Z,12.90
2022-12-29T12:38:48.102Z,13.00
2022-12-29T12:42:01.433Z,13.10
2022-12-29T12:44:56.618Z,13.30
2022-12-29T12:47:36.494Z,13.40
2022-12-29T12:50:25.393Z,13.40
2022-12-29T12:53:25.803Z,13.30
2022-12-29T12:56:35.633Z,13.40
2022-12-29T12:59:13.165Z,13.50
2022-12-29T13:02:28.068Z,13.60
2022-12-29T13:06:15.158Z,13.50
2022-12-29T13:09:28.734Z,13.60
2022-12-29T13:12:21.871Z,13.80
2022-12-29T13:15:06.294Z,13.90
2022-12-29T13:18:05.199Z,13.90
2022-12-29T13:21:17.904Z,13.90
2022-12-29T13:24:45.602Z,14.10
2022-12-29T13:27:23.037Z,14.20
2022-12-29T13:30:10.746Z,14.20
2022-12-29T13:33:04.465Z,14.10
2022-12-29T13:35:55.171Z,14.00
2022-12-29T13:38:37.232Z,13.80
2022-12-29T13:41:19.825Z,13.60
2022-12-29T13:43:52.305Z,13.50
2022-12-29T13:46:32.422Z,13.40
2022-12-29T13:49:24.038Z,13.40
2022-12-29T13:52:10.838Z,13.50
2022-12-29T13:54:59.770Z,13.40
2022-12-29T13:58:15.916Z,13.30
2022-12-29T14:00:59.661Z,13.40
2022-12-29T14:03:46.357Z,13.40
2022-12-29T14:06:23.804Z,13.30
2022-12-29T14:08:59.050Z,13.30
2022-12-29T14:11:39.985Z,13.30
2022-12-29T14:14:31.428Z,13.20
2022-12-29T14:17:15.255Z,13.20
2022-12-29T14:19:47.569Z,13.20
2022-12-29T14:22:32.682Z,13.20
2022-12-29T14:25:05.063Z,13.20
2022-12-29T14:27:55.016Z,13.20
2022-12-29T14:30:57.046Z,13.20
2022-12-29T14:33:32.221Z,13.20
2022-12-29T14:36:27.683Z,13.20
2022-12-29T14:38:58.543Z,13.20
2022-12-29T14:41:34.354Z,13.20
2022-12-29T14:44:08.170Z,13.20
2022-12-29T14:47:00.449Z,13.20
2022-12-29T14:49:40.218Z,13.30
2022-12-29T14:52:26.907Z,13.30
2022-12-29T14:55:56.320Z,13.20
2022-12-29T14:59:02.258Z,13.10
2022-12-29T15:01:46.524Z,13.10
2022-12-29T15:04:33.171Z,13.00
2022-12-29T15:07:10.698Z,13.10
2022-12-29T15:09:51.835Z,13.00
2022-12-29T15:12:45.749Z,13.10
2022-12-29T15:15:29.415Z,13.10
2022-12-29T15:18:29.345Z,13.10
2022-12-29T15:21:04.719Z,13.10
2022-12-29T15:23:38.509Z,13.10
2022-12-29T15:26:10.096Z,13.00
2022-12-29T15:28:46.723Z,13.00
2022-12-29T15:31:30.583Z,12.90
2022-12-29T15:34:12.984Z,13.00
2022-12-29T15:36:47.437Z,12.90
2022-12-29T15:39:29.381Z,12.90
2022-12-29T15:42:16.386Z,12.90
2022-12-29T15:44:48.001Z,12.90
2022-12-29T15:47:26.120Z,12.90
2022-12-29T15:50:20.256Z,12.90
2022-12-29T15:52:52.248Z,12.90
2022-12-29T15:55:34.673Z,12.70
2022-12-29T15:58:28.384Z,12.30
2022-12-29T16:01:02.581Z,11.90
2022-12-29T16:03:37.355Z,11.50
2022-12-29T16:06:11.330Z,11.20
2022-12-29T16:08:42.170Z,11.00
2022-12-29T16:11:32.408Z,11.00
2022-12-29T16:14:11.542Z,10.90
2022-12-29T16:16:44.801Z,10.90
2022-12-29T16:19:40.251Z,10.90
2022-12-29T16:22:21.008Z,10.90
2022-12-29T16:24:52.102Z,10.90
2022-12-29T16:27:46.462Z,10.90
2022-12-29T16:30:26.504Z,10.90
2022-12-29T16:33:06.004Z,10.90
2022-12-29T16:35:54.964Z,10.90
2022-12-29T16:38:34.522Z,10.90
2022-12-29T16:41:05.563Z,11.00
2022-12-29T16:43:42.958Z,11.00
2022-12-29T16:46:25.056Z,11.10
2022-12-29T16:48:58.196Z,11.20
2022-12-29T16:51:36.559Z,11.30
2022-12-29T16:54:08.329Z,11.40
2022-12-29T16:56:46.169Z,11.40
2022-12-29T16:59:33.471Z,11.40
2022-12-29T17:02:26.610Z,11.40
2022-12-29T17:04:57.755Z,11.40
2022-12-29T17:07:29.442Z,11.40
2022-12-29T17:10:00.777Z,11.30
2022-12-29T17:12:34.852Z,11.20
2022-12-29T17:15:13.892Z,11.10
2022-12-29T17:17:46.817Z,10.90
2022-12-29T17:20:26.000Z,10.80
2022-12-29T17:22:59.139Z,10.70
2022-12-29T17:25:34.359Z,10.70
2022-12-29T17:28:23.132Z,10.60
2022-12-29T17:30:58.907Z,10.60
2022-12-29T17:33:36.484Z,10.60
2022-12-29T17:36:07.809Z,10.60
2022-12-29T17:38:38.735Z,10.60
2022-12-29T17:41:15.414Z,10.60
2022-12-29T17:43:46.326Z,10.60
2022-12-29T17:46:17.236Z,10.60
2022-12-29T17:48:53.367Z,10.60
2022-12-29T17:51:24.882Z,10.60
2022-12-29T17:53:56.780Z,10.70
2022-12-29T17:56:27.655Z,10.80
2022-12-29T17:58:58.535Z,10.80
2022-12-29T18:01:35.435Z,10.80
2022-12-29T18:04:07.118Z,10.80
2022-12-29T18:06:38.026Z,10.90
2022-12-29T18:09:10.660Z,10.90
2022-12-29T18:11:44.112Z,10.80
2022-12-29T18:14:17.373Z,10.70
2022-12-29T18:16:48.284Z,10.70
2022-12-29T18:19:19.257Z,10.50
2022-12-29T18:21:50.140Z,10.40
2022-12-29T18:24:21.060Z,10.40
2022-12-29T18:26:52.111Z,10.20
2022-12-29T18:29:23.022Z,10.10
2022-12-29T18:31:56.584Z,10.00
2022-12-29T18:34:27.457Z,9.90
2022-12-29T18:36:59.906Z,9.80
2022-12-29T18:39:31.079Z,9.70
2022-12-29T18:42:02.012Z,9.70
2022-12-29T18:44:34.223Z,9.60
2022-12-29T18:47:07.232Z,9.60
2022-12-29T18:49:38.067Z,9.60
2022-12-29T18:52:13.772Z,9.60
2022-12-29T18:54:44.592Z,9.60
2022-12-29T18:57:15.510Z,9.60
2022-12-29T18:59:46.379Z,9.70
2022-12-29T19:02:17.835Z,9.70
2022-12-29T19:04:52.813Z,9.70
2022-12-29T19:07:24.003Z,9.70
2022-12-29T19:09:56.384Z,9.70
2022-12-29T19:12:28.593Z,9.80
2022-12-29T19:15:02.178Z,9.70
2022-12-29T19:17:36.713Z,9.80
2022-12-29T19:20:41.717Z,9.80
2022-12-29T19:23:16.057Z,9.80
2022-12-29T19:25:48.213Z,9.80
2022-12-29T19:28:27.796Z,9.70
2022-12-29T19:31:02.864Z,9.70
2022-12-29T19:33:33.902Z,9.70
2022-12-29T19:36:05.107Z,9.60
2022-12-29T19:38:35.976Z,9.60
2022-12-29T19:41:07.803Z,9.50
2022-12-29T19:43:38.789Z,9.50
2022-12-29T19:46:13.962Z,9.50
2022-12-29T19:48:44.888Z,9.50
2022-12-29T19:51:17.328Z,9.50
2022-12-29T19:53:48.773Z,9.50
2022-12-29T19:56:19.920Z,9.40
2022-12-29T19:58:51.446Z,9.40
2022-12-29T20:01:23.926Z,9.30
2022-12-29T20:03:54.937Z,9.30
2022-12-29T20:06:25.859Z,9.30
2022-12-29T20:08:56.790Z,9.30
2022-12-29T20:11:27.635Z,9.20
2022-12-29T20:13:58.592Z,9.30
2022-12-29T20:16:32.270Z,9.30
2022-12-29T20:19:05.260Z,9.30
2022-12-29T20:21:36.253Z,9.30
2022-12-29T20:24:08.214Z,9.30
2022-12-29T20:26:39.143Z,9.30
2022-12-29T20:29:09.977Z,9.20
2022-12-29T20:31:41.200Z,9.20
2022-12-29T20:34:12.495Z,9.20
2022-12-29T20:36:47.038Z,9.10
2022-12-29T20:39:20.256Z,9.10
2022-12-29T20:41:51.493Z,9.10
2022-12-29T20:44:23.096Z,9.10
2022-12-29T20:46:54.098Z,9.10
2022-12-29T20:49:25.310Z,9.10
2022-12-29T20:52:11.496Z,9.00
2022-12-29T20:54:42.367Z,9.00
2022-12-29T20:57:13.318Z,8.90
2022-12-29T20:59:44.152Z,8.90
2022-12-29T21:02:24.289Z,8.90
2022-12-29T21:05:22.723Z,8.90
2022-12-29T21:07:46.184Z,8.90
2022-12-29T21:10:17.622Z,8.90
2022-12-29T21:12:48.737Z,8.90
2022-12-29T21:15:19.734Z,8.80
2022-12-29T21:17:50.611Z,8.80
2022-12-29T21:20:21.474Z,8.60
2022-12-29T21:22:52.407Z,8.50
2022-12-29T21:25:23.932Z,8.50
2022-12-29T21:27:54.878Z,8.40
2022-12-29T21:30:25.790Z,8.40
2022-12-29T21:32:56.715Z,8.40
2022-12-29T21:35:28.094Z,8.40
2022-12-29T21:37:58.962Z,8.40
2022-12-29T21:40:29.865Z,8.30
2022-12-29T21:43:00.773Z,8.30
2022-12-29T21:45:32.552Z,8.30
2022-12-29T21:48:21.389Z,8.20
2022-12-29T21:51:16.708Z,8.30
2022-12-29T21:53:47.892Z,8.30
2022-12-29T21:56:21.447Z,8.40
2022-12-29T21:59:10.626Z,8.40
2022-12-29T22:02:00.242Z,8.40
2022-12-29T22:04:52.544Z,8.30
2022-12-29T22:07:42.099Z,8.30
2022-12-29T22:10:36.151Z,8.20
2022-12-29T22:13:07.041Z,8.30
2022-12-29T22:15:42.007Z,8.40
2022-12-29T22:18:16.059Z,8.40
2022-12-29T22:20:47.028Z,8.50
2022-12-29T22:23:17.983Z,8.50
2022-12-29T22:25:49.953Z,8.40
2022-12-29T22:28:21.200Z,8.40
2022-12-29T22:30:52.155Z,8.40
2022-12-29T22:33:23.162Z,8.50
2022-12-29T22:35:54.040Z,8.50
2022-12-29T22:38:25.063Z,8.50
2022-12-29T22:41:00.555Z,8.50
2022-12-29T22:43:31.407Z,8.60
2022-12-29T22:46:04.590Z,8.60
2022-12-29T22:48:36.629Z,8.50
2022-12-29T22:51:07.629Z,8.60
2022-12-29T22:53:39.544Z,8.60
2022-12-29T22:56:13.150Z,8.60
2022-12-29T22:58:46.943Z,8.60
2022-12-29T23:01:22.500Z,8.50
2022-12-29T23:04:05.896Z,8.70
2022-12-29T23:06:44.715Z,8.60
2022-12-29T23:09:21.969Z,8.60
2022-12-29T23:11:53.427Z,8.70
2022-12-29T23:14:25.205Z,8.60
2022-12-29T23:16:56.101Z,8.70
2022-12-29T23:19:27.084Z,8.80
2022-12-29T23:21:57.997Z,8.80
2022-12-29T23:24:28.906Z,8.70
2022-12-29T23:26:59.770Z,8.80
2022-12-29T23:29:30.659Z,8.90
2022-12-29T23:32:02.757Z,8.90
2022-12-29T23:34:33.608Z,8.90
2022-12-29T23:37:04.543Z,8.90
2022-12-29T23:39:35.433Z,8.80
2022-12-29T23:42:06.482Z,8.80
2022-12-29T23:44:37.303Z,8.90
2022-12-29T23:47:08.239Z,8.80
2022-12-29T23:49:39.144Z,8.90
2022-12-29T23:52:10.083Z,8.80
2022-12-29T23:54:40.968Z,8.80
2022-12-29T23:57:11.857Z,8.80
2022-12-29T23:59:42.710Z,8.80
